createdAt,value
2018-01-24T00:01:43.129Z,33.90
2018-01-24T00:04:10.696Z,33.83
2018-01-24T00:06:38.320Z,28.50
2018-01-24T00:09:05.932Z,30.77
2018-01-24T00:11:33.531Z,31.03
2018-01-24T00:14:01.148Z,33.00
2018-01-24T00:16:28.720Z,43.87
2018-01-24T00:18:56.372Z,29.60
2018-01-24T00:21:23.988Z,30.90
2018-01-24T00:23:51.566Z,36.97
2018-01-24T00:26:19.141Z,29.47
2018-01-24T00:28:46.816Z,34.20
2018-01-24T00:31:14.396Z,43.73
2018-01-24T00:33:41.976Z,40.87
2018-01-24T00:36:09.597Z,35.30
2018-01-24T00:38:37.170Z,34.70
2018-01-24T00:41:04.749Z,32.47
2018-01-24T00:43:32.391Z,34.43
2018-01-24T00:45:59.965Z,39.87
2018-01-24T00:48:27.525Z,28.50
2018-01-24T00:50:55.246Z,33.77
2018-01-24T00:53:22.838Z,34.30
2018-01-24T00:55:50.416Z,29.43
2018-01-24T00:58:18.042Z,35.43
2018-01-24T01:00:45.634Z,38.30
2018-01-24T01:03:13.216Z,35.13
2018-01-24T01:05:40.815Z,32.27
2018-01-24T01:08:08.397Z,31.73
2018-01-24T01:10:35.962Z,21.80
2018-01-24T01:13:03.581Z,26.37
2018-01-24T01:15:31.151Z,29.27
2018-01-24T01:17:58.730Z,19.00
2018-01-24T01:20:26.354Z,20.77
2018-01-24T01:22:53.929Z,26.30
2018-01-24T01:25:21.498Z,23.10
2018-01-24T01:27:49.200Z,23.77
2018-01-24T01:30:16.780Z,17.63
2018-01-24T01:32:44.349Z,19.07
2018-01-24T01:35:11.961Z,19.73
2018-01-24T01:37:39.518Z,20.27
2018-01-24T01:40:07.080Z,16.37
2018-01-24T01:42:34.689Z,14.10
2018-01-24T01:45:02.264Z,10.47
2018-01-24T01:47:29.853Z,13.03
2018-01-24T01:49:57.520Z,24.53
2018-01-24T01:52:25.140Z,26.97
2018-01-24T01:54:52.754Z,18.73
2018-01-24T01:57:20.402Z,16.53
2018-01-24T01:59:48.017Z,18.03
2018-01-24T02:02:15.604Z,18.40
2018-01-24T02:04:43.292Z,17.03
2018-01-24T02:07:11.051Z,20.50
2018-01-24T02:09:38.633Z,15.10
2018-01-24T02:12:06.252Z,17.63
2018-01-24T02:14:33.835Z,11.53
2018-01-24T02:17:01.411Z,14.00
2018-01-24T02:19:29.094Z,14.10
2018-01-24T02:21:56.677Z,20.63
2018-01-24T02:24:24.286Z,9.33
2018-01-24T02:26:51.960Z,14.20
2018-01-24T02:29:19.542Z,9.90
2018-01-24T02:31:47.162Z,8.17
2018-01-24T02:34:14.772Z,8.23
2018-01-24T02:36:42.343Z,15.17
2018-01-24T02:39:15.989Z,12.27
2018-01-24T02:41:43.559Z,20.73
2018-01-24T02:44:11.131Z,11.60
2018-01-24T02:46:38.750Z,17.60
2018-01-24T02:49:06.711Z,10.63
2018-01-24T02:51:34.336Z,6.40
2018-01-24T02:54:01.957Z,10.10
2018-01-24T02:56:29.523Z,10.00
2018-01-24T02:58:57.087Z,12.87
2018-01-24T03:01:24.691Z,7.10
2018-01-24T03:03:52.275Z,12.83
2018-01-24T03:06:19.860Z,9.67
2018-01-24T03:08:47.462Z,12.23
2018-01-24T03:11:15.027Z,13.50
2018-01-24T03:13:42.852Z,12.80
2018-01-24T03:16:10.486Z,11.67
2018-01-24T03:18:38.056Z,15.80
2018-01-24T03:21:05.824Z,19.63
2018-01-24T03:23:33.428Z,16.77
2018-01-24T03:26:01.013Z,12.17
2018-01-24T03:28:28.597Z,11.90
2018-01-24T03:30:56.210Z,14.27
2018-01-24T03:33:23.772Z,16.60
2018-01-24T03:35:51.355Z,12.10
2018-01-24T03:38:19.265Z,13.20
2018-01-24T03:40:46.844Z,12.90
2018-01-24T03:43:14.419Z,15.00
2018-01-24T03:45:42.019Z,16.23
2018-01-24T03:48:09.591Z,23.17
2018-01-24T03:50:37.186Z,14.73
2018-01-24T03:53:04.812Z,14.90
2018-01-24T03:55:32.395Z,14.27
2018-01-24T03:57:59.999Z,18.73
2018-01-24T04:00:27.628Z,14.23
2018-01-24T04:02:55.212Z,15.03
2018-01-24T04:05:22.801Z,11.10
2018-01-24T04:07:50.424Z,11.00
2018-01-24T04:10:17.993Z,11.57
2018-01-24T04:12:45.555Z,10.50
2018-01-24T04:15:13.167Z,18.77
2018-01-24T04:17:40.754Z,9.87
2018-01-24T04:20:08.396Z,16.50
2018-01-24T04:22:36.025Z,12.97
2018-01-24T04:25:03.612Z,8.77
2018-01-24T04:27:31.184Z,12.40
2018-01-24T04:29:58.818Z,14.60
2018-01-24T04:32:26.378Z,10.57
2018-01-24T04:34:53.950Z,17.67
2018-01-24T04:37:21.642Z,10.93
2018-01-24T04:39:49.283Z,14.77
2018-01-24T04:42:16.875Z,12.33
2018-01-24T04:44:44.533Z,10.87
2018-01-24T04:47:12.139Z,12.10
2018-01-24T04:49:39.757Z,11.90
2018-01-24T04:52:07.508Z,14.23
2018-01-24T04:54:35.105Z,13.40
2018-01-24T04:57:02.794Z,17.40
2018-01-24T04:59:30.445Z,16.23
2018-01-24T05:01:58.057Z,21.13
2018-01-24T05:04:25.672Z,9.20
2018-01-24T05:06:53.331Z,13.13
2018-01-24T05:09:20.944Z,7.77
2018-01-24T05:11:48.579Z,9.37
2018-01-24T05:14:16.258Z,12.33
2018-01-24T05:16:43.879Z,11.67
2018-01-24T05:19:11.516Z,9.83
2018-01-24T05:21:40.643Z,8.83
2018-01-24T05:24:08.270Z,12.00
2018-01-24T05:26:35.857Z,12.33
2018-01-24T05:29:03.459Z,9.50
2018-01-24T05:31:31.031Z,15.13
2018-01-24T05:33:58.598Z,16.07
2018-01-24T05:36:26.214Z,10.70
2018-01-24T05:38:53.801Z,10.60
2018-01-24T05:41:21.382Z,12.23
2018-01-24T05:43:49.013Z,11.90
2018-01-24T05:46:16.598Z,14.93
2018-01-24T05:48:44.197Z,12.47
2018-01-24T05:51:11.816Z,10.30
2018-01-24T05:53:39.406Z,11.20
2018-01-24T05:56:06.975Z,16.40
2018-01-24T05:58:34.617Z,16.83
2018-01-24T06:01:02.179Z,10.63
2018-01-24T06:03:29.759Z,14.30
2018-01-24T06:05:57.375Z,22.20
2018-01-24T06:08:24.965Z,15.63
2018-01-24T06:10:52.542Z,13.23
2018-01-24T06:13:20.169Z,12.53
2018-01-24T06:15:47.756Z,15.37
2018-01-24T06:18:15.400Z,12.93
2018-01-24T06:20:43.007Z,16.60
2018-01-24T06:23:10.583Z,22.27
2018-01-24T06:25:38.163Z,15.30
2018-01-24T06:28:05.775Z,17.47
2018-01-24T06:30:33.354Z,9.10
2018-01-24T06:33:00.927Z,23.70
2018-01-24T06:35:28.596Z,19.40
2018-01-24T06:37:56.183Z,18.63
2018-01-24T06:40:23.773Z,18.37
2018-01-24T06:42:51.602Z,20.40
2018-01-24T06:45:19.180Z,26.70
2018-01-24T06:47:46.761Z,20.03
2018-01-24T06:50:14.401Z,21.03
2018-01-24T06:52:41.987Z,23.93
2018-01-24T06:55:09.577Z,25.40
2018-01-24T06:57:37.241Z,19.70
2018-01-24T07:00:04.913Z,19.83
2018-01-24T07:02:32.589Z,17.43
2018-01-24T07:05:00.235Z,15.67
2018-01-24T07:07:27.818Z,16.70
2018-01-24T07:09:55.387Z,27.47
2018-01-24T07:12:34.688Z,14.73
2018-01-24T07:15:02.272Z,13.60
2018-01-24T07:17:30.172Z,15.87
2018-01-24T07:19:58.716Z,25.80
2018-01-24T07:22:26.972Z,16.63
2018-01-24T07:24:54.539Z,18.13
2018-01-24T07:27:22.193Z,13.37
2018-01-24T07:29:49.954Z,17.17
2018-01-24T07:32:17.710Z,17.30
2018-01-24T07:34:45.384Z,13.00
2018-01-24T07:37:12.965Z,31.60
2018-01-24T07:39:40.590Z,19.63
2018-01-24T07:42:08.219Z,20.33
2018-01-24T07:44:36.044Z,21.20
2018-01-24T07:47:03.618Z,15.47
2018-01-24T07:49:31.342Z,19.03
2018-01-24T07:51:58.976Z,15.00
2018-01-24T07:54:26.672Z,17.77
2018-01-24T07:56:54.488Z,12.27
2018-01-24T07:59:22.124Z,17.23
2018-01-24T08:01:49.755Z,14.80
2018-01-24T08:04:17.422Z,17.30
2018-01-24T08:06:45.049Z,17.80
2018-01-24T08:09:12.680Z,19.50
2018-01-24T08:11:40.354Z,19.30
2018-01-24T08:14:07.963Z,19.23
2018-01-24T08:16:35.596Z,24.97
2018-01-24T08:19:03.239Z,27.77
2018-01-24T08:21:30.868Z,22.17
2018-01-24T08:23:58.551Z,22.47
2018-01-24T08:26:26.166Z,26.43
2018-01-24T08:28:53.756Z,21.13
2018-01-24T08:31:21.502Z,24.87
2018-01-24T08:33:49.123Z,17.97
2018-01-24T08:36:16.711Z,18.93
2018-01-24T08:38:44.300Z,23.27
2018-01-24T08:41:11.919Z,14.40
2018-01-24T08:43:39.620Z,21.70
2018-01-24T08:46:07.200Z,20.13
2018-01-24T08:48:35.732Z,26.30
2018-01-24T08:51:03.311Z,21.63
2018-01-24T08:53:30.889Z,54.40
2018-01-24T08:55:58.544Z,18.23
2018-01-24T08:58:26.124Z,26.23
2018-01-24T09:00:53.714Z,23.73
2018-01-24T09:03:21.338Z,25.60
2018-01-24T09:05:48.925Z,23.13
2018-01-24T09:08:16.499Z,18.13
2018-01-24T09:10:44.152Z,22.40
2018-01-24T09:13:11.809Z,24.90
2018-01-24T09:15:39.432Z,17.37
2018-01-24T09:18:07.071Z,33.53
2018-01-24T09:20:34.685Z,16.17
2018-01-24T09:23:02.265Z,14.37
2018-01-24T09:25:29.919Z,23.67
2018-01-24T09:27:57.533Z,43.50
2018-01-24T09:30:25.153Z,45.30
2018-01-24T09:32:53.319Z,41.10
2018-01-24T09:35:20.941Z,40.37
2018-01-24T09:37:48.558Z,32.33
2018-01-24T09:40:16.185Z,29.93
2018-01-24T09:42:43.735Z,31.20
2018-01-24T09:45:11.300Z,27.03
2018-01-24T09:47:38.939Z,46.10
2018-01-24T09:50:06.553Z,27.47
2018-01-24T09:52:34.103Z,19.20
2018-01-24T09:55:01.747Z,24.00
2018-01-24T09:57:29.321Z,23.33
2018-01-24T09:59:56.976Z,22.83
2018-01-24T10:02:24.580Z,27.20
2018-01-24T10:04:53.730Z,40.50
2018-01-24T10:07:21.329Z,25.00
2018-01-24T10:09:48.936Z,23.80
2018-01-24T10:12:16.504Z,37.40
2018-01-24T10:14:44.117Z,18.47
2018-01-24T10:17:11.740Z,20.07
2018-01-24T10:19:39.333Z,16.40
2018-01-24T10:22:06.905Z,23.40
2018-01-24T10:24:34.517Z,20.10
2018-01-24T10:27:02.131Z,22.37
2018-01-24T10:29:29.733Z,27.17
2018-01-24T10:31:57.392Z,31.03
2018-01-24T10:34:25.067Z,16.50
2018-01-24T10:36:52.717Z,29.50
2018-01-24T10:39:20.493Z,26.07
2018-01-24T10:41:48.227Z,28.07
2018-01-24T10:44:15.984Z,24.13
2018-01-24T10:46:43.614Z,21.33
2018-01-24T10:49:11.231Z,21.50
2018-01-24T10:51:38.862Z,17.30
2018-01-24T10:54:06.501Z,21.20
2018-01-24T10:56:34.116Z,20.83
2018-01-24T10:59:01.700Z,62.80
2018-01-24T11:01:29.302Z,25.07
2018-01-24T11:03:56.864Z,46.83
2018-01-24T11:06:24.441Z,37.53
2018-01-24T11:08:52.053Z,34.90
2018-01-24T11:11:19.670Z,161.70
2018-01-24T11:13:47.330Z,49.97
2018-01-24T11:16:14.946Z,18.93
2018-01-24T11:18:42.497Z,59.40
2018-01-24T11:21:10.055Z,101.13
2018-01-24T11:23:37.674Z,24.63
2018-01-24T11:26:05.289Z,25.10
2018-01-24T11:28:32.943Z,119.23
2018-01-24T11:31:00.542Z,34.93
2018-01-24T11:33:28.149Z,31.80
2018-01-24T11:35:55.751Z,20.27
2018-01-24T11:38:23.393Z,27.20
2018-01-24T11:40:51.066Z,20.80
2018-01-24T11:43:18.671Z,21.57
2018-01-24T11:45:46.290Z,20.73
2018-01-24T11:48:13.860Z,22.53
2018-01-24T11:50:41.452Z,12.90
2018-01-24T11:53:09.058Z,17.27
2018-01-24T11:55:36.643Z,14.90
2018-01-24T11:58:04.230Z,20.97
2018-01-24T12:00:31.859Z,31.77
2018-01-24T12:02:59.424Z,25.17
2018-01-24T12:05:27.008Z,35.53
2018-01-24T12:07:54.662Z,20.00
2018-01-24T12:10:22.239Z,20.67
2018-01-24T12:12:49.839Z,20.30
2018-01-24T12:15:17.497Z,15.47
2018-01-24T12:17:45.070Z,17.67
2018-01-24T12:20:12.612Z,18.67
2018-01-24T12:22:40.256Z,25.87
2018-01-24T12:25:07.873Z,15.40
2018-01-24T12:27:35.452Z,13.70
2018-01-24T12:30:03.228Z,18.37
2018-01-24T12:32:30.805Z,13.87
2018-01-24T12:34:58.387Z,15.57
2018-01-24T12:37:26.024Z,14.80
2018-01-24T12:39:53.678Z,12.47
2018-01-24T12:42:21.232Z,11.10
2018-01-24T12:44:48.845Z,21.50
2018-01-24T12:47:16.456Z,49.87
2018-01-24T12:49:44.046Z,25.03
2018-01-24T12:52:11.652Z,21.93
2018-01-24T12:54:39.255Z,22.87
2018-01-24T12:57:06.829Z,16.73
2018-01-24T12:59:34.451Z,13.17
2018-01-24T13:02:02.038Z,19.60
2018-01-24T13:04:29.635Z,18.07
2018-01-24T13:06:57.259Z,27.90
2018-01-24T13:09:24.839Z,11.13
2018-01-24T13:11:52.460Z,15.13
2018-01-24T13:14:20.077Z,14.60
2018-01-24T13:16:47.661Z,23.10
2018-01-24T13:19:15.241Z,14.73
2018-01-24T13:21:42.883Z,16.80
2018-01-24T13:24:10.502Z,17.50
2018-01-24T13:26:38.207Z,16.00
2018-01-24T13:29:05.904Z,18.13
2018-01-24T13:31:33.550Z,26.27
2018-01-24T13:34:01.234Z,21.67
2018-01-24T13:36:28.896Z,20.10
2018-01-24T13:38:56.488Z,15.33
2018-01-24T13:41:24.096Z,14.47
2018-01-24T13:43:51.721Z,12.80
2018-01-24T13:46:19.301Z,9.70
2018-01-24T13:48:46.911Z,17.07
2018-01-24T13:51:14.554Z,10.00
2018-01-24T13:53:42.161Z,18.27
2018-01-24T13:56:09.773Z,19.20
2018-01-24T13:58:37.412Z,13.27
2018-01-24T14:01:05.324Z,28.77
2018-01-24T14:03:32.896Z,43.77
2018-01-24T14:06:00.577Z,53.23
2018-01-24T14:08:29.754Z,42.10
2018-01-24T14:10:57.331Z,33.37
2018-01-24T14:13:24.931Z,60.33
2018-01-24T14:15:52.567Z,28.70
2018-01-24T14:18:20.179Z,52.13
2018-01-24T14:20:47.791Z,37.93
2018-01-24T14:23:15.356Z,73.83
2018-01-24T14:25:42.936Z,46.63
2018-01-24T14:28:10.545Z,33.13
2018-01-24T14:30:38.105Z,26.97
2018-01-24T14:33:05.815Z,46.90
2018-01-24T14:35:33.462Z,77.17
2018-01-24T14:38:01.046Z,75.90
2018-01-24T14:40:28.619Z,86.27
2018-01-24T14:42:56.215Z,45.40
2018-01-24T14:45:23.786Z,40.10
2018-01-24T14:47:57.017Z,26.13
2018-01-24T14:50:24.609Z,38.00
2018-01-24T14:52:52.295Z,98.60
2018-01-24T14:55:19.899Z,70.13
2018-01-24T14:57:47.466Z,54.20
2018-01-24T15:00:15.053Z,46.47
2018-01-24T15:02:42.665Z,75.70
2018-01-24T15:05:10.261Z,104.57
2018-01-24T15:07:38.010Z,77.80
2018-01-24T15:10:06.225Z,73.27
2018-01-24T15:12:34.665Z,69.77
2018-01-24T15:15:02.362Z,77.80
2018-01-24T15:17:30.672Z,112.33
2018-01-24T15:19:59.083Z,85.80
2018-01-24T15:22:27.766Z,79.57
2018-01-24T15:24:55.529Z,61.57
2018-01-24T15:27:24.415Z,64.83
2018-01-24T15:29:53.421Z,56.30
2018-01-24T15:32:22.472Z,62.50
2018-01-24T15:34:50.177Z,128.00
2018-01-24T15:37:17.768Z,112.10
2018-01-24T15:39:45.344Z,111.13
2018-01-24T15:42:12.959Z,85.00
2018-01-24T15:44:40.547Z,114.10
2018-01-24T15:47:08.195Z,123.23
2018-01-24T15:49:35.809Z,101.03
2018-01-24T15:52:03.384Z,90.23
2018-01-24T15:54:30.968Z,105.87
2018-01-24T15:56:58.577Z,120.70
2018-01-24T15:59:26.157Z,121.97
2018-01-24T16:01:53.729Z,106.23
2018-01-24T16:04:21.425Z,92.53
2018-01-24T16:06:48.989Z,88.03
2018-01-24T16:09:16.555Z,66.27
2018-01-24T16:11:44.355Z,74.87
2018-01-24T16:14:11.918Z,108.87
2018-01-24T16:16:39.509Z,100.80
2018-01-24T16:19:07.176Z,71.07
2018-01-24T16:21:34.733Z,79.67
2018-01-24T16:24:02.310Z,73.80
2018-01-24T16:26:30.039Z,73.80
2018-01-24T16:28:57.943Z,82.80
2018-01-24T16:31:25.514Z,91.97
2018-01-24T16:33:53.144Z,93.93
2018-01-24T16:36:20.756Z,85.07
2018-01-24T16:38:48.323Z,94.90
2018-01-24T16:41:15.947Z,100.27
2018-01-24T16:43:43.510Z,184.70
2018-01-24T16:46:11.104Z,139.32
2018-01-24T16:48:38.737Z,141.73
2018-01-24T16:51:06.325Z,114.23
2018-01-24T16:53:33.957Z,152.40
2018-01-24T16:56:01.569Z,135.20
2018-01-24T16:58:29.659Z,146.47
2018-01-24T17:00:57.245Z,187.83
2018-01-24T17:03:24.841Z,104.30
2018-01-24T17:05:52.467Z,48.60
2018-01-24T17:08:20.082Z,99.63
2018-01-24T17:10:47.715Z,51.70
2018-01-24T17:13:15.297Z,42.23
2018-01-24T17:15:43.780Z,32.50
2018-01-24T17:18:11.387Z,41.10
2018-01-24T17:20:38.974Z,39.23
2018-01-24T17:23:06.631Z,38.23
2018-01-24T17:25:34.284Z,43.60
2018-01-24T17:28:01.884Z,33.40
2018-01-24T17:30:29.486Z,38.90
2018-01-24T17:32:57.043Z,54.17
2018-01-24T17:35:24.692Z,43.20
2018-01-24T17:37:52.280Z,33.00
2018-01-24T17:40:20.769Z,25.57
2018-01-24T17:42:48.329Z,50.23
2018-01-24T17:45:15.948Z,26.93
2018-01-24T17:47:43.525Z,44.23
2018-01-24T17:50:11.108Z,50.10
2018-01-24T17:52:38.723Z,65.10
2018-01-24T17:55:06.321Z,50.33
2018-01-24T17:57:33.880Z,28.90
2018-01-24T18:00:01.512Z,40.53
2018-01-24T18:02:29.079Z,33.13
2018-01-24T18:04:56.649Z,50.30
2018-01-24T18:07:24.244Z,40.10
2018-01-24T18:09:51.801Z,37.50
2018-01-24T18:12:19.373Z,30.07
2018-01-24T18:14:46.987Z,33.00
2018-01-24T18:17:14.547Z,38.50
2018-01-24T18:19:42.124Z,39.60
2018-01-24T18:22:09.733Z,23.23
2018-01-24T18:24:37.295Z,49.80
2018-01-24T18:27:04.882Z,22.53
2018-01-24T18:29:32.489Z,38.33
2018-01-24T18:32:00.064Z,55.90
2018-01-24T18:34:27.641Z,33.00
2018-01-24T18:36:55.233Z,32.77
2018-01-24T18:39:22.877Z,22.00
2018-01-24T18:41:50.458Z,21.33
2018-01-24T18:44:18.056Z,27.10
2018-01-24T18:46:45.613Z,22.30
2018-01-24T18:49:13.181Z,64.67
2018-01-24T18:51:40.825Z,28.80
2018-01-24T18:54:08.441Z,32.60
2018-01-24T18:56:36.023Z,23.00
2018-01-24T18:59:03.625Z,33.87
2018-01-24T19:01:31.224Z,38.43
2018-01-24T19:03:58.842Z,29.37
2018-01-24T19:06:26.466Z,31.03
2018-01-24T19:08:54.093Z,26.00
2018-01-24T19:11:21.649Z,27.43
2018-01-24T19:13:49.266Z,37.70
2018-01-24T19:16:16.827Z,19.53
2018-01-24T19:18:44.398Z,34.33
2018-01-24T19:21:12.015Z,33.53
2018-01-24T19:23:39.597Z,29.37
2018-01-24T19:26:07.291Z,28.43
2018-01-24T19:28:34.915Z,32.00
2018-01-24T19:31:02.482Z,29.90
2018-01-24T19:33:30.106Z,30.83
2018-01-24T19:35:57.746Z,35.53
2018-01-24T19:38:25.352Z,25.53
2018-01-24T19:40:52.960Z,48.90
2018-01-24T19:43:20.606Z,52.87
2018-01-24T19:45:48.176Z,45.57
2018-01-24T19:48:15.789Z,19.93
2018-01-24T19:50:43.349Z,37.50
2018-01-24T19:53:10.954Z,25.73
2018-01-24T19:55:38.568Z,28.30
2018-01-24T19:58:06.128Z,27.83
2018-01-24T20:00:33.692Z,33.53
2018-01-24T20:03:01.282Z,24.27
2018-01-24T20:05:28.861Z,31.90
2018-01-24T20:07:56.734Z,43.17
2018-01-24T20:10:24.325Z,43.33
2018-01-24T20:12:51.965Z,44.33
2018-01-24T20:15:19.554Z,47.23
2018-01-24T20:17:47.193Z,39.17
2018-01-24T20:20:14.768Z,34.53
2018-01-24T20:22:42.333Z,36.43
2018-01-24T20:25:09.949Z,28.63
2018-01-24T20:27:37.526Z,25.63
2018-01-24T20:30:05.094Z,25.40
2018-01-24T20:32:32.714Z,27.37
2018-01-24T20:35:00.295Z,29.40
2018-01-24T20:37:27.872Z,28.33
2018-01-24T20:39:55.484Z,26.70
2018-01-24T20:42:23.042Z,34.40
2018-01-24T20:44:50.606Z,47.77
2018-01-24T20:47:18.226Z,69.40
2018-01-24T20:49:45.787Z,52.47
2018-01-24T20:52:13.350Z,35.23
2018-01-24T20:54:40.952Z,31.50
2018-01-24T20:57:08.528Z,33.50
2018-01-24T20:59:36.084Z,37.13
2018-01-24T21:02:03.681Z,35.80
2018-01-24T21:04:31.260Z,31.03
2018-01-24T21:06:58.829Z,29.17
2018-01-24T21:09:26.407Z,52.27
2018-01-24T21:11:53.968Z,35.10
2018-01-24T21:14:21.521Z,37.23
2018-01-24T21:16:49.156Z,35.20
2018-01-24T21:19:16.725Z,38.67
2018-01-24T21:21:44.277Z,38.13
2018-01-24T21:24:12.470Z,35.30
2018-01-24T21:26:40.056Z,27.13
2018-01-24T21:29:28.996Z,27.43
2018-01-24T21:35:08.137Z,30.17
2018-01-24T21:37:35.714Z,33.30
2018-01-24T21:40:03.323Z,40.93
2018-01-24T21:42:30.932Z,40.20
2018-01-24T21:44:58.500Z,23.33
2018-01-24T21:47:26.104Z,36.77
2018-01-24T21:49:53.700Z,30.53
2018-01-24T21:52:21.271Z,31.43
2018-01-24T21:54:48.883Z,32.90
2018-01-24T21:57:16.482Z,31.23
2018-01-24T21:59:44.047Z,31.23
2018-01-24T22:02:11.616Z,34.90
2018-01-24T22:04:39.216Z,24.37
2018-01-24T22:07:06.797Z,42.03
2018-01-24T22:09:34.402Z,27.97
2018-01-24T22:12:01.987Z,31.90
2018-01-24T22:14:29.544Z,29.40
2018-01-24T22:16:57.096Z,29.57
2018-01-24T22:19:24.708Z,25.97
2018-01-24T22:21:52.285Z,34.10
2018-01-24T22:24:19.867Z,40.93
2018-01-24T22:26:47.520Z,42.53
2018-01-24T22:29:15.071Z,53.70
2018-01-24T22:31:42.703Z,37.70
2018-01-24T22:34:10.322Z,37.00
2018-01-24T22:36:37.929Z,35.57
2018-01-24T22:39:05.534Z,36.47
2018-01-24T22:41:33.144Z,33.80
2018-01-24T22:44:00.707Z,25.13
2018-01-24T22:46:28.304Z,29.70
2018-01-24T22:48:55.903Z,28.60
2018-01-24T22:51:25.281Z,26.07
2018-01-24T22:53:52.855Z,26.83
2018-01-24T22:56:20.482Z,26.03
2018-01-24T22:58:48.084Z,33.17
2018-01-24T23:01:15.644Z,34.17
2018-01-24T23:03:43.226Z,38.50
2018-01-24T23:06:10.857Z,38.87
2018-01-24T23:08:38.415Z,35.23
2018-01-24T23:11:06.019Z,32.30
2018-01-24T23:13:33.576Z,29.37
2018-01-24T23:16:01.186Z,31.60
2018-01-24T23:18:28.793Z,35.10
2018-01-24T23:20:56.359Z,33.57
2018-01-24T23:23:23.917Z,37.47
2018-01-24T23:25:51.521Z,31.97
2018-01-24T23:28:19.088Z,35.00
2018-01-24T23:30:46.658Z,31.30
2018-01-24T23:33:14.302Z,42.00
2018-01-24T23:35:41.879Z,41.83
2018-01-24T23:38:09.435Z,30.57
2018-01-24T23:40:37.034Z,43.60
2018-01-24T23:43:04.601Z,33.30
2018-01-24T23:45:32.177Z,33.87
2018-01-24T23:47:59.783Z,42.27
2018-01-24T23:50:27.375Z,39.27
2018-01-24T23:52:55.410Z,37.13
2018-01-24T23:55:23.017Z,31.80
2018-01-24T23:57:50.564Z,33.63
